createdAt,value
2022-09-09T00:01:03.815Z,15.80
2022-09-09T00:03:42.282Z,15.70
2022-09-09T00:06:20.184Z,15.80
2022-09-09T00:09:02.516Z,15.80
2022-09-09T00:11:37.604Z,15.80
2022-09-09T00:14:15.446Z,15.80
2022-09-09T00:16:49.279Z,15.90
2022-09-09T00:19:24.863Z,15.90
2022-09-09T00:22:06.158Z,15.90
2022-09-09T00:24:43.764Z,15.90
2022-09-09T00:27:23.746Z,15.90
2022-09-09T00:29:56.751Z,15.90
2022-09-09T00:32:29.362Z,15.90
2022-09-09T00:35:00.888Z,15.90
2022-09-09T00:37:32.570Z,16.00
2022-09-09T00:40:04.595Z,15.90
2022-09-09T00:42:42.895Z,15.90
2022-09-09T00:45:27.048Z,15.90
2022-09-09T00:47:55.923Z,16.00
2022-09-09T00:50:41.805Z,16.00
2022-09-09T00:53:21.500Z,16.00
2022-09-09T00:55:55.527Z,16.00
2022-09-09T00:58:23.357Z,16.00
2022-09-09T01:00:56.771Z,16.00
2022-09-09T01:03:32.564Z,16.00
2022-09-09T01:06:07.154Z,16.00
2022-09-09T01:08:59.798Z,16.00
2022-09-09T01:11:35.455Z,16.00
2022-09-09T01:14:14.013Z,16.00
2022-09-09T01:16:43.594Z,16.00
2022-09-09T01:19:20.305Z,16.00
2022-09-09T01:21:53.127Z,16.00
2022-09-09T01:24:29.282Z,16.00
2022-09-09T01:27:02.155Z,16.00
2022-09-09T01:29:30.280Z,16.10
2022-09-09T01:32:00.150Z,16.10
2022-09-09T01:34:31.797Z,16.20
2022-09-09T01:37:05.475Z,16.20
2022-09-09T01:39:34.768Z,16.20
2022-09-09T01:42:04.945Z,16.30
2022-09-09T01:44:33.629Z,16.40
2022-09-09T01:47:01.573Z,16.40
2022-09-09T01:49:29.852Z,16.40
2022-09-09T01:51:58.395Z,16.40
2022-09-09T01:54:31.567Z,16.40
2022-09-09T01:57:10.897Z,16.40
2022-09-09T01:59:59.752Z,16.40
2022-09-09T02:02:32.371Z,16.40
2022-09-09T02:05:11.823Z,16.40
2022-09-09T02:07:42.665Z,16.30
2022-09-09T02:10:17.462Z,16.30
2022-09-09T02:12:50.000Z,16.30
2022-09-09T02:15:24.478Z,16.30
2022-09-09T02:17:54.069Z,16.30
2022-09-09T02:20:22.906Z,16.30
2022-09-09T02:22:53.124Z,16.30
2022-09-09T02:25:24.573Z,16.30
2022-09-09T02:27:53.792Z,16.30
2022-09-09T02:30:22.236Z,16.30
2022-09-09T02:32:57.859Z,16.30
2022-09-09T02:35:27.495Z,16.30
2022-09-09T02:38:00.155Z,16.40
2022-09-09T02:40:28.028Z,16.40
2022-09-09T02:42:57.490Z,16.40
2022-09-09T02:45:29.542Z,16.40
2022-09-09T02:48:05.622Z,16.40
2022-09-09T02:50:36.257Z,16.30
2022-09-09T02:53:11.102Z,16.30
2022-09-09T02:55:43.264Z,16.30
2022-09-09T02:58:17.996Z,16.30
2022-09-09T03:00:47.526Z,16.20
2022-09-09T03:03:16.961Z,16.30
2022-09-09T03:05:45.192Z,16.30
2022-09-09T03:08:14.098Z,16.20
2022-09-09T03:10:42.199Z,16.20
2022-09-09T03:13:10.093Z,16.00
2022-09-09T03:15:39.289Z,16.00
2022-09-09T03:18:07.143Z,16.00
2022-09-09T03:20:35.022Z,16.00
2022-09-09T03:23:03.494Z,16.00
2022-09-09T03:25:31.377Z,16.00
2022-09-09T03:27:59.353Z,16.00
2022-09-09T03:30:29.608Z,16.10
2022-09-09T03:32:59.232Z,16.10
2022-09-09T03:35:27.147Z,16.00
2022-09-09T03:37:56.708Z,16.00
2022-09-09T03:40:24.742Z,16.00
2022-09-09T03:42:52.622Z,15.90
2022-09-09T03:45:20.638Z,15.80
2022-09-09T03:47:48.446Z,15.70
2022-09-09T03:50:20.215Z,15.70
2022-09-09T03:52:48.495Z,15.70
2022-09-09T03:55:16.476Z,15.70
2022-09-09T03:57:44.271Z,15.70
2022-09-09T04:00:13.127Z,15.70
2022-09-09T04:02:41.033Z,15.70
2022-09-09T04:05:09.613Z,15.70
2022-09-09T04:07:38.835Z,15.70
2022-09-09T04:10:08.221Z,15.70
2022-09-09T04:12:36.687Z,15.70
2022-09-09T04:15:04.927Z,15.70
2022-09-09T04:17:33.819Z,15.70
2022-09-09T04:20:02.164Z,15.70
2022-09-09T04:22:30.038Z,15.70
2022-09-09T04:24:59.228Z,15.70
2022-09-09T04:27:27.140Z,15.70
2022-09-09T04:29:56.266Z,15.70
2022-09-09T04:32:24.309Z,15.70
2022-09-09T04:34:52.168Z,15.70
2022-09-09T04:37:20.109Z,15.70
2022-09-09T04:39:47.997Z,15.80
2022-09-09T04:42:17.325Z,15.90
2022-09-09T04:44:45.202Z,15.90
2022-09-09T04:47:13.114Z,15.90
2022-09-09T04:49:40.951Z,15.90
2022-09-09T04:52:08.792Z,16.00
2022-09-09T04:54:36.664Z,15.90
2022-09-09T04:57:04.803Z,16.00
2022-09-09T04:59:34.048Z,16.00
2022-09-09T05:02:02.634Z,16.00
2022-09-09T05:04:30.604Z,16.00
2022-09-09T05:06:58.525Z,16.00
2022-09-09T05:09:26.388Z,16.00
2022-09-09T05:11:54.230Z,16.00
2022-09-09T05:14:22.060Z,16.00
2022-09-09T05:16:52.357Z,16.00
2022-09-09T05:19:20.810Z,16.00
2022-09-09T05:21:48.656Z,16.00
2022-09-09T05:24:16.700Z,16.00
2022-09-09T05:26:45.104Z,16.00
2022-09-09T05:29:13.071Z,16.00
2022-09-09T05:31:42.424Z,16.00
2022-09-09T05:34:12.238Z,16.00
2022-09-09T05:36:40.366Z,16.00
2022-09-09T05:39:08.246Z,16.00
2022-09-09T05:41:36.888Z,16.00
2022-09-09T05:44:04.776Z,16.00
2022-09-09T05:46:32.787Z,16.10
2022-09-09T05:49:01.228Z,16.00
2022-09-09T05:51:31.910Z,16.10
2022-09-09T05:54:00.412Z,16.00
2022-09-09T05:56:29.517Z,16.00
2022-09-09T05:58:58.369Z,16.10
2022-09-09T06:01:28.598Z,16.10
2022-09-09T06:03:57.230Z,16.10
2022-09-09T06:06:27.550Z,16.10
2022-09-09T06:08:59.344Z,16.10
2022-09-09T06:11:32.069Z,16.20
2022-09-09T06:14:00.187Z,16.20
2022-09-09T06:16:30.038Z,16.40
2022-09-09T06:18:59.042Z,16.50
2022-09-09T06:21:28.720Z,16.60
2022-09-09T06:24:01.092Z,16.80
2022-09-09T06:26:31.614Z,16.90
2022-09-09T06:29:01.139Z,17.00
2022-09-09T06:31:31.327Z,17.10
2022-09-09T06:34:00.814Z,17.20
2022-09-09T06:36:31.064Z,17.20
2022-09-09T06:39:01.038Z,17.30
2022-09-09T06:41:32.428Z,17.40
2022-09-09T06:44:00.657Z,17.60
2022-09-09T06:46:31.272Z,17.70
2022-09-09T06:49:00.599Z,17.90
2022-09-09T06:51:29.778Z,18.00
2022-09-09T06:53:59.169Z,18.10
2022-09-09T06:56:29.919Z,18.00
2022-09-09T06:58:59.337Z,18.00
2022-09-09T07:01:29.068Z,18.00
2022-09-09T07:06:24.613Z,18.00
2022-09-09T07:08:56.431Z,17.90
2022-09-09T07:11:27.778Z,18.00
2022-09-09T07:13:57.219Z,18.00
2022-09-09T07:16:25.736Z,18.00
2022-09-09T07:18:58.581Z,17.90
2022-09-09T07:21:28.285Z,17.90
2022-09-09T07:23:56.686Z,18.00
2022-09-09T07:26:26.723Z,18.00
2022-09-09T07:28:58.073Z,18.10
2022-09-09T07:31:27.936Z,18.20
2022-09-09T07:33:55.970Z,18.20
2022-09-09T07:36:26.438Z,18.30
2022-09-09T07:38:58.910Z,18.30
2022-09-09T07:41:29.185Z,18.40
2022-09-09T07:43:59.393Z,18.50
2022-09-09T07:46:28.345Z,18.50
2022-09-09T07:48:59.077Z,18.50
2022-09-09T07:51:29.017Z,18.60
2022-09-09T07:53:59.483Z,18.60
2022-09-09T07:56:29.001Z,18.60
2022-09-09T07:59:00.569Z,18.50
2022-09-09T08:01:30.975Z,18.50
2022-09-09T08:04:01.985Z,18.40
2022-09-09T08:06:31.037Z,18.30
2022-09-09T08:08:58.866Z,18.30
2022-09-09T08:11:28.717Z,18.30
2022-09-09T08:14:02.245Z,18.30
2022-09-09T08:16:33.060Z,18.30
2022-09-09T08:19:01.125Z,18.30
2022-09-09T08:21:30.556Z,18.30
2022-09-09T08:24:00.172Z,18.30
2022-09-09T08:26:30.265Z,18.40
2022-09-09T08:29:01.232Z,18.40
2022-09-09T08:31:31.191Z,18.30
2022-09-09T08:34:01.282Z,18.30
2022-09-09T08:36:30.795Z,18.40
2022-09-09T08:38:59.661Z,18.80
2022-09-09T08:41:52.375Z,19.40
2022-09-09T08:44:31.945Z,20.10
2022-09-09T08:47:08.086Z,20.80
2022-09-09T08:49:54.759Z,21.20
2022-09-09T08:52:28.140Z,21.60
2022-09-09T08:55:04.952Z,21.50
2022-09-09T08:57:34.282Z,21.20
2022-09-09T09:00:05.063Z,21.20
2022-09-09T09:02:40.818Z,21.10
2022-09-09T09:05:21.838Z,20.80
2022-09-09T09:08:01.534Z,20.60
2022-09-09T09:10:42.798Z,20.60
2022-09-09T09:13:16.886Z,20.40
2022-09-09T09:15:48.858Z,20.30
2022-09-09T09:18:18.956Z,20.50
2022-09-09T09:20:56.005Z,20.60
2022-09-09T09:23:26.081Z,20.60
2022-09-09T09:26:00.285Z,20.40
2022-09-09T09:28:31.527Z,20.60
2022-09-09T09:31:06.733Z,20.80
2022-09-09T09:33:41.694Z,20.90
2022-09-09T09:36:10.365Z,20.90
2022-09-09T09:41:32.856Z,20.80
2022-09-09T09:44:01.627Z,20.70
2022-09-09T09:46:31.271Z,20.60
2022-09-09T09:49:00.872Z,20.60
2022-09-09T09:51:30.782Z,20.50
2022-09-09T09:54:16.042Z,20.40
2022-09-09T09:56:45.889Z,20.40
2022-09-09T09:59:38.587Z,20.40
2022-09-09T10:02:25.746Z,20.50
2022-09-09T10:05:04.556Z,20.60
2022-09-09T10:07:34.265Z,20.80
2022-09-09T10:10:02.636Z,21.00
2022-09-09T10:12:46.188Z,21.20
2022-09-09T10:15:29.306Z,21.10
2022-09-09T10:18:06.471Z,20.80
2022-09-09T10:20:42.339Z,20.60
2022-09-09T10:23:23.253Z,20.40
2022-09-09T10:26:07.258Z,20.40
2022-09-09T10:28:55.457Z,20.80
2022-09-09T10:31:33.267Z,21.30
2022-09-09T10:34:10.780Z,21.50
2022-09-09T10:36:45.036Z,21.70
2022-09-09T10:39:30.701Z,21.90
2022-09-09T10:42:05.959Z,21.90
2022-09-09T10:44:55.501Z,22.00
2022-09-09T10:47:52.153Z,21.80
2022-09-09T10:51:03.565Z,21.50
2022-09-09T10:53:44.967Z,21.50
2022-09-09T10:56:18.023Z,21.40
2022-09-09T10:58:51.089Z,21.50
2022-09-09T11:01:24.569Z,21.70
2022-09-09T11:03:59.274Z,21.60
2022-09-09T11:06:34.302Z,21.50
2022-09-09T11:09:04.226Z,21.40
2022-09-09T11:11:37.987Z,21.30
2022-09-09T11:14:14.241Z,21.10
2022-09-09T11:16:49.031Z,21.00
2022-09-09T11:19:24.427Z,21.00
2022-09-09T11:21:55.763Z,21.00
2022-09-09T11:24:28.812Z,21.00
2022-09-09T11:27:00.741Z,20.90
2022-09-09T11:30:05.488Z,20.90
2022-09-09T11:33:14.221Z,20.80
2022-09-09T11:36:05.900Z,20.70
2022-09-09T11:38:46.513Z,20.30
2022-09-09T11:41:20.870Z,20.10
2022-09-09T11:43:52.233Z,19.90
2022-09-09T11:46:23.138Z,19.60
2022-09-09T11:49:01.480Z,19.30
2022-09-09T11:51:31.477Z,19.10
2022-09-09T11:54:05.962Z,19.00
2022-09-09T11:56:36.093Z,19.00
2022-09-09T11:59:06.425Z,18.90
2022-09-09T12:01:39.671Z,18.90
2022-09-09T12:04:45.754Z,18.80
2022-09-09T12:07:34.126Z,18.80
2022-09-09T12:10:07.920Z,18.70
2022-09-09T12:12:40.375Z,18.70
2022-09-09T12:15:35.827Z,18.60
2022-09-09T12:18:04.444Z,18.70
2022-09-09T12:20:37.751Z,19.00
2022-09-09T12:23:26.110Z,19.70
2022-09-09T12:26:22.536Z,20.20
2022-09-09T12:28:58.804Z,20.90
2022-09-09T12:31:35.346Z,21.50
2022-09-09T12:34:16.545Z,21.90
2022-09-09T12:36:47.857Z,22.50
2022-09-09T12:39:23.278Z,22.70
2022-09-09T12:41:59.193Z,22.80
2022-09-09T12:44:28.981Z,22.80
2022-09-09T12:47:00.216Z,22.60
2022-09-09T12:49:35.280Z,22.60
2022-09-09T12:52:06.814Z,22.60
2022-09-09T12:54:37.056Z,22.40
2022-09-09T12:57:07.149Z,22.30
2022-09-09T12:59:40.179Z,22.30
2022-09-09T13:02:19.633Z,22.40
2022-09-09T13:04:48.283Z,22.20
2022-09-09T13:07:17.345Z,22.20
2022-09-09T13:09:46.377Z,22.20
2022-09-09T13:12:20.604Z,22.10
2022-09-09T13:14:51.763Z,22.10
2022-09-09T13:17:23.373Z,22.40
2022-09-09T13:19:53.788Z,22.70
2022-09-09T13:22:31.674Z,22.80
2022-09-09T13:25:19.506Z,23.00
2022-09-09T13:27:57.323Z,23.20
2022-09-09T13:30:28.280Z,22.90
2022-09-09T13:33:20.281Z,22.50
2022-09-09T13:35:51.314Z,22.40
2022-09-09T13:38:19.804Z,22.50
2022-09-09T13:41:00.165Z,22.60
2022-09-09T13:43:30.429Z,22.50
2022-09-09T13:45:59.985Z,22.20
2022-09-09T13:48:28.853Z,22.00
2022-09-09T13:50:58.754Z,22.10
2022-09-09T13:53:26.953Z,21.90
2022-09-09T13:55:55.724Z,21.90
2022-09-09T13:58:24.116Z,21.90
2022-09-09T14:00:53.789Z,21.80
2022-09-09T14:03:21.869Z,21.60
2022-09-09T14:05:49.813Z,21.40
2022-09-09T14:08:26.058Z,21.20
2022-09-09T14:10:54.315Z,21.00
2022-09-09T14:13:23.008Z,20.90
2022-09-09T14:15:51.827Z,20.70
2022-09-09T14:18:23.339Z,20.60
2022-09-09T14:20:51.482Z,20.60
2022-09-09T14:23:19.748Z,20.60
2022-09-09T14:25:47.662Z,20.60
2022-09-09T14:28:16.045Z,20.60
2022-09-09T14:30:45.729Z,20.50
2022-09-09T14:33:15.796Z,20.60
2022-09-09T14:35:45.514Z,20.60
2022-09-09T14:38:18.311Z,20.70
2022-09-09T14:40:47.721Z,20.80
2022-09-09T14:43:15.764Z,20.80
2022-09-09T14:45:44.321Z,20.80
2022-09-09T14:48:12.448Z,20.80
2022-09-09T14:50:41.480Z,20.70
2022-09-09T14:53:11.505Z,20.70
2022-09-09T14:55:39.826Z,20.70
2022-09-09T14:58:08.045Z,20.60
2022-09-09T15:00:36.645Z,20.50
2022-09-09T15:03:04.637Z,20.40
2022-09-09T15:05:32.767Z,20.30
2022-09-09T15:08:00.956Z,20.30
2022-09-09T15:10:32.381Z,20.30
2022-09-09T15:13:00.247Z,20.10
2022-09-09T15:15:28.763Z,19.90
2022-09-09T15:17:57.743Z,19.50
2022-09-09T15:20:25.593Z,19.10
2022-09-09T15:22:53.822Z,18.90
2022-09-09T15:25:22.783Z,18.50
2022-09-09T15:27:52.023Z,18.40
2022-09-09T15:30:19.811Z,18.30
2022-09-09T15:32:47.952Z,18.20
2022-09-09T15:35:16.297Z,18.10
2022-09-09T15:37:44.159Z,18.10
2022-09-09T15:40:12.729Z,18.10
2022-09-09T15:42:40.588Z,18.20
2022-09-09T15:45:11.166Z,18.30
2022-09-09T15:47:39.492Z,18.50
2022-09-09T15:50:08.299Z,18.70
2022-09-09T15:52:36.132Z,18.80
2022-09-09T15:55:04.041Z,19.00
2022-09-09T15:57:31.841Z,19.20
2022-09-09T16:00:00.680Z,19.40
2022-09-09T16:02:29.872Z,19.50
2022-09-09T16:04:58.256Z,19.60
2022-09-09T16:07:26.104Z,19.60
2022-09-09T16:09:55.018Z,19.60
2022-09-09T16:12:23.114Z,19.60
2022-09-09T16:14:51.046Z,19.60
2022-09-09T16:17:21.357Z,19.60
2022-09-09T16:19:50.832Z,19.50
2022-09-09T16:22:19.075Z,19.40
2022-09-09T16:24:47.067Z,19.40
2022-09-09T16:27:15.048Z,19.30
2022-09-09T16:29:42.874Z,19.30
2022-09-09T16:32:11.212Z,19.30
2022-09-09T16:34:39.084Z,19.30
2022-09-09T16:37:08.248Z,19.20
2022-09-09T16:39:36.170Z,19.20
2022-09-09T16:42:05.641Z,19.10
2022-09-09T16:44:33.669Z,19.20
2022-09-09T16:47:01.484Z,19.10
2022-09-09T16:49:29.623Z,19.10
2022-09-09T16:52:00.486Z,19.10
2022-09-09T16:54:29.763Z,19.20
2022-09-09T16:56:57.832Z,19.20
2022-09-09T16:59:25.744Z,19.20
2022-09-09T17:01:54.446Z,19.20
2022-09-09T17:04:25.090Z,19.20
2022-09-09T17:06:55.074Z,19.10
2022-09-09T17:09:23.849Z,19.10
2022-09-09T17:11:53.525Z,19.10
2022-09-09T17:14:23.184Z,18.90
2022-09-09T17:16:51.262Z,18.80
2022-09-09T17:19:19.681Z,18.70
2022-09-09T17:24:39.217Z,18.40
2022-09-09T17:27:08.503Z,18.30
2022-09-09T17:29:36.797Z,18.30
2022-09-09T17:32:06.245Z,18.20
2022-09-09T17:34:34.071Z,18.20
2022-09-09T17:37:02.033Z,18.00
2022-09-09T17:39:30.418Z,17.90
2022-09-09T17:41:58.335Z,17.60
2022-09-09T17:44:29.744Z,17.30
2022-09-09T17:46:57.849Z,17.10
2022-09-09T17:49:25.931Z,16.90
2022-09-09T17:51:54.822Z,16.70
2022-09-09T17:54:22.739Z,16.60
2022-09-09T17:56:51.269Z,16.50
2022-09-09T17:59:20.284Z,16.40
2022-09-09T18:01:50.983Z,16.30
2022-09-09T18:04:20.340Z,16.20
2022-09-09T18:06:50.339Z,16.10
2022-09-09T18:09:20.280Z,16.00
2022-09-09T18:11:49.796Z,16.00
2022-09-09T18:14:20.105Z,16.00
2022-09-09T18:16:50.157Z,15.90
2022-09-09T18:19:20.358Z,15.90
2022-09-09T18:21:49.140Z,15.80
2022-09-09T18:24:18.616Z,15.80
2022-09-09T18:26:48.101Z,15.70
2022-09-09T18:29:20.178Z,15.60
2022-09-09T18:31:50.172Z,15.60
2022-09-09T18:34:19.527Z,15.60
2022-09-09T18:36:49.136Z,15.60
2022-09-09T18:39:19.309Z,15.50
2022-09-09T18:41:48.612Z,15.50
2022-09-09T18:44:18.863Z,15.50
2022-09-09T18:46:47.685Z,15.50
2022-09-09T18:49:17.308Z,15.50
2022-09-09T18:51:46.587Z,15.40
2022-09-09T18:54:16.809Z,15.40
2022-09-09T18:56:45.340Z,15.40
2022-09-09T18:59:15.656Z,15.30
2022-09-09T19:01:44.560Z,15.30
2022-09-09T19:04:12.502Z,15.40
2022-09-09T19:06:43.669Z,15.40
2022-09-09T19:09:12.732Z,15.30
2022-09-09T19:11:41.443Z,15.30
2022-09-09T19:14:12.342Z,15.40
2022-09-09T19:16:41.473Z,15.40
2022-09-09T19:19:12.300Z,15.40
2022-09-09T19:21:42.439Z,15.40
2022-09-09T19:24:14.218Z,15.40
2022-09-09T19:26:43.986Z,15.40
2022-09-09T19:29:14.545Z,15.50
2022-09-09T19:31:55.151Z,15.50
2022-09-09T19:34:31.099Z,15.50
2022-09-09T19:37:00.593Z,15.50
2022-09-09T19:39:28.728Z,15.50
2022-09-09T19:41:56.603Z,15.50
2022-09-09T19:44:24.425Z,15.50
2022-09-09T19:46:52.605Z,15.50
2022-09-09T19:49:20.540Z,15.50
2022-09-09T19:51:48.375Z,15.60
2022-09-09T19:54:17.571Z,15.60
2022-09-09T19:56:46.003Z,15.60
2022-09-09T19:59:15.705Z,15.60
2022-09-09T20:01:45.580Z,15.60
2022-09-09T20:04:15.507Z,15.60
2022-09-09T20:06:44.901Z,15.60
2022-09-09T20:09:15.613Z,15.50
2022-09-09T20:11:46.499Z,15.50
2022-09-09T20:14:15.383Z,15.40
2022-09-09T20:16:45.574Z,15.40
2022-09-09T20:19:16.118Z,15.40
2022-09-09T20:21:47.791Z,15.40
2022-09-09T20:24:17.988Z,15.40
2022-09-09T20:26:48.054Z,15.30
2022-09-09T20:29:18.185Z,15.30
2022-09-09T20:31:46.669Z,15.30
2022-09-09T20:34:17.118Z,15.30
2022-09-09T20:36:45.966Z,15.30
2022-09-09T20:39:15.865Z,15.40
2022-09-09T20:41:45.413Z,15.30
2022-09-09T20:44:16.368Z,15.30
2022-09-09T20:46:47.884Z,15.30
2022-09-09T20:49:17.371Z,15.30
2022-09-09T20:51:46.345Z,15.30
2022-09-09T20:54:16.859Z,15.30
2022-09-09T20:56:46.494Z,15.30
2022-09-09T20:59:18.248Z,15.30
2022-09-09T21:01:47.482Z,15.30
2022-09-09T21:04:17.855Z,15.30
2022-09-09T21:06:46.224Z,15.40
2022-09-09T21:09:14.567Z,15.40
2022-09-09T21:11:42.918Z,15.40
2022-09-09T21:14:11.456Z,15.50
2022-09-09T21:16:40.647Z,15.50
2022-09-09T21:19:09.421Z,15.50
2022-09-09T21:21:37.451Z,15.50
2022-09-09T21:24:05.959Z,15.50
2022-09-09T21:26:35.421Z,15.50
2022-09-09T21:29:03.240Z,15.50
2022-09-09T21:31:31.284Z,15.50
2022-09-09T21:34:01.063Z,15.50
2022-09-09T21:36:29.438Z,15.50
2022-09-09T21:38:59.008Z,15.50
2022-09-09T21:41:27.068Z,15.50
2022-09-09T21:43:55.720Z,15.50
2022-09-09T21:46:26.503Z,15.40
2022-09-09T21:48:56.284Z,15.40
2022-09-09T21:51:25.812Z,15.40
2022-09-09T21:53:56.492Z,15.40
2022-09-09T21:56:26.959Z,15.40
2022-09-09T21:58:58.789Z,15.40
2022-09-09T22:01:27.018Z,15.40
2022-09-09T22:03:55.315Z,15.50
2022-09-09T22:06:23.178Z,15.50
2022-09-09T22:08:52.400Z,15.50
2022-09-09T22:11:22.869Z,15.50
2022-09-09T22:13:53.124Z,15.50
2022-09-09T22:16:23.365Z,15.50
2022-09-09T22:18:52.696Z,15.50
2022-09-09T22:21:21.890Z,15.50
2022-09-09T22:23:54.305Z,15.50
2022-09-09T22:26:22.663Z,15.50
2022-09-09T22:28:50.789Z,15.50
2022-09-09T22:31:18.715Z,15.60
2022-09-09T22:33:46.555Z,15.70
2022-09-09T22:36:14.451Z,15.70
2022-09-09T22:38:42.813Z,15.70
2022-09-09T22:41:12.608Z,15.70
2022-09-09T22:43:43.326Z,15.80
2022-09-09T22:46:11.825Z,15.70
2022-09-09T22:48:40.864Z,15.80
2022-09-09T22:51:10.737Z,15.80
2022-09-09T22:53:40.284Z,15.80
2022-09-09T22:56:13.227Z,15.80
2022-09-09T22:58:42.599Z,15.80
2022-09-09T23:01:13.892Z,15.80
2022-09-09T23:03:42.401Z,15.80
2022-09-09T23:06:20.110Z,15.80
2022-09-09T23:08:49.387Z,15.70
2022-09-09T23:11:18.912Z,15.70
2022-09-09T23:13:52.472Z,15.70
2022-09-09T23:16:23.171Z,15.70
2022-09-09T23:18:52.189Z,15.70
2022-09-09T23:21:20.825Z,15.60
2022-09-09T23:23:48.985Z,15.70
2022-09-09T23:26:19.944Z,15.70
2022-09-09T23:28:50.368Z,15.70
2022-09-09T23:31:21.956Z,15.70
2022-09-09T23:33:49.944Z,15.60
2022-09-09T23:36:19.526Z,15.60
2022-09-09T23:38:47.974Z,15.60
2022-09-09T23:41:20.815Z,15.60
2022-09-09T23:43:50.732Z,15.60
2022-09-09T23:46:20.868Z,15.60
2022-09-09T23:48:51.569Z,15.60
2022-09-09T23:51:23.778Z,15.60
2022-09-09T23:53:53.029Z,15.60
2022-09-09T23:56:21.605Z,15.60
2022-09-09T23:58:51.964Z,15.50
